createdAt,value
2019-03-10T00:01:32.817Z,101548.00
2019-03-10T00:03:08.187Z,101559.00
2019-03-10T00:04:44.693Z,101557.00
2019-03-10T00:06:20.332Z,101576.00
2019-03-10T00:07:55.694Z,101576.00
2019-03-10T00:09:32.138Z,101570.00
2019-03-10T00:11:07.506Z,101567.00
2019-03-10T00:12:42.863Z,101556.00
2019-03-10T00:14:18.227Z,101572.00
2019-03-10T00:15:53.674Z,101572.00
2019-03-10T00:17:29.307Z,101567.00
2019-03-10T00:19:04.682Z,101568.00
2019-03-10T00:20:40.060Z,101560.00
2019-03-10T00:22:15.828Z,101570.00
2019-03-10T00:23:51.197Z,101565.00
2019-03-10T00:25:26.559Z,101558.00
2019-03-10T00:27:01.928Z,101560.00
2019-03-10T00:28:37.295Z,101560.00
2019-03-10T00:30:17.931Z,101562.00
2019-03-10T00:31:53.540Z,101544.00
2019-03-10T00:33:28.903Z,101543.00
2019-03-10T00:35:05.913Z,101548.00
2019-03-10T00:36:41.281Z,101548.00
2019-03-10T00:38:16.642Z,101561.00
2019-03-10T00:40:05.229Z,101570.00
2019-03-10T00:42:12.887Z,101560.00
2019-03-10T00:44:27.073Z,101560.00
2019-03-10T00:46:19.049Z,101565.00
2019-03-10T00:48:30.541Z,101559.00
2019-03-10T00:50:37.011Z,101566.00
2019-03-10T00:52:31.274Z,101569.00
2019-03-10T00:54:06.641Z,101577.00
2019-03-10T00:55:42.007Z,101587.00
2019-03-10T00:57:17.439Z,101584.00
2019-03-10T00:58:52.808Z,101584.00
2019-03-10T01:00:28.247Z,101589.00
2019-03-10T01:02:03.611Z,101587.00
2019-03-10T01:03:38.964Z,101593.00
2019-03-10T01:05:14.341Z,101585.00
2019-03-10T01:06:49.873Z,101583.00
2019-03-10T01:08:25.403Z,101582.00
2019-03-10T01:10:00.807Z,101577.00
2019-03-10T01:11:36.203Z,101581.00
2019-03-10T01:13:11.570Z,101571.00
2019-03-10T01:14:47.246Z,101578.00
2019-03-10T01:16:23.144Z,101583.00
2019-03-10T01:17:59.740Z,101570.00
2019-03-10T01:19:35.779Z,101570.00
2019-03-10T01:21:12.591Z,101576.00
2019-03-10T01:22:49.397Z,101577.00
2019-03-10T01:24:24.761Z,101575.00
2019-03-10T01:26:00.881Z,101576.00
2019-03-10T01:27:36.251Z,101585.00
2019-03-10T01:29:11.623Z,101572.00
2019-03-10T01:30:57.639Z,101572.00
2019-03-10T01:32:49.158Z,101567.00
2019-03-10T01:35:07.074Z,101562.00
2019-03-10T01:36:42.449Z,101558.00
2019-03-10T01:38:17.805Z,101562.00
2019-03-10T01:39:53.182Z,101562.00
2019-03-10T01:41:28.615Z,101547.00
2019-03-10T01:43:03.972Z,101556.00
2019-03-10T01:44:39.347Z,101543.00
2019-03-10T01:46:15.965Z,101546.00
2019-03-10T01:47:51.332Z,101541.00
2019-03-10T01:49:26.775Z,101537.00
2019-03-10T01:51:02.148Z,101543.00
2019-03-10T01:52:37.509Z,101545.00
2019-03-10T01:54:13.982Z,101539.00
2019-03-10T01:55:50.522Z,101540.00
2019-03-10T01:57:25.886Z,101528.00
2019-03-10T01:59:01.250Z,101536.00
2019-03-10T02:00:36.689Z,101538.00
2019-03-10T02:02:12.062Z,101526.00
2019-03-10T02:03:47.428Z,101522.00
2019-03-10T02:05:22.804Z,101524.00
2019-03-10T02:06:58.171Z,101524.00
2019-03-10T02:08:33.600Z,101516.00
2019-03-10T02:10:12.125Z,101507.00
2019-03-10T02:11:47.508Z,101510.00
2019-03-10T02:13:22.869Z,101509.00
2019-03-10T02:14:58.352Z,101512.00
2019-03-10T02:16:34.026Z,101514.00
2019-03-10T02:18:09.394Z,101519.00
2019-03-10T02:19:44.834Z,101511.00
2019-03-10T02:21:20.209Z,101500.00
2019-03-10T02:22:55.637Z,101507.00
2019-03-10T02:24:31.002Z,101506.00
2019-03-10T02:26:06.378Z,101491.00
2019-03-10T02:27:41.736Z,101492.00
2019-03-10T02:29:17.097Z,101494.00
2019-03-10T02:30:52.683Z,101494.00
2019-03-10T02:32:28.053Z,101500.00
2019-03-10T02:34:03.693Z,101495.00
2019-03-10T02:35:40.131Z,101495.00
2019-03-10T02:37:15.511Z,101501.00
2019-03-10T02:38:51.231Z,101503.00
2019-03-10T02:40:26.605Z,101508.00
2019-03-10T02:42:02.956Z,101498.00
2019-03-10T02:43:38.337Z,101502.00
2019-03-10T02:45:13.785Z,101496.00
2019-03-10T02:46:49.162Z,101495.00
2019-03-10T02:48:25.544Z,101498.00
2019-03-10T02:50:00.939Z,101490.00
2019-03-10T02:51:36.308Z,101477.00
2019-03-10T02:53:12.005Z,101484.00
2019-03-10T02:54:47.653Z,101488.00
2019-03-10T02:56:23.042Z,101475.00
2019-03-10T02:57:58.416Z,101477.00
2019-03-10T02:59:34.062Z,101478.00
2019-03-10T03:01:09.710Z,101473.00
2019-03-10T03:02:45.084Z,101464.00
2019-03-10T03:04:20.484Z,101458.00
2019-03-10T03:05:55.938Z,101460.00
2019-03-10T03:07:31.334Z,101465.00
2019-03-10T03:09:07.188Z,101464.00
2019-03-10T03:10:44.161Z,101458.00
2019-03-10T03:12:19.532Z,101451.00
2019-03-10T03:13:55.512Z,101459.00
2019-03-10T03:15:30.897Z,101463.00
2019-03-10T03:17:06.285Z,101461.00
2019-03-10T03:18:41.661Z,101468.00
2019-03-10T03:20:17.046Z,101461.00
2019-03-10T03:21:52.876Z,101459.00
2019-03-10T03:23:28.586Z,101458.00
2019-03-10T03:25:05.608Z,101446.00
2019-03-10T03:26:41.008Z,101434.00
2019-03-10T03:28:16.401Z,101450.00
2019-03-10T03:29:51.768Z,101418.00
2019-03-10T03:31:28.399Z,101442.00
2019-03-10T03:33:03.771Z,101432.00
2019-03-10T03:34:39.254Z,101429.00
2019-03-10T03:36:22.087Z,101424.00
2019-03-10T03:37:57.468Z,101427.00
2019-03-10T03:39:34.352Z,101420.00
2019-03-10T03:41:13.711Z,101425.00
2019-03-10T03:42:49.083Z,101424.00
2019-03-10T03:44:26.664Z,101420.00
2019-03-10T03:46:02.067Z,101412.00
2019-03-10T03:47:37.420Z,101410.00
2019-03-10T03:49:12.790Z,101407.00
2019-03-10T03:50:48.528Z,101408.00
2019-03-10T03:52:24.881Z,101413.00
2019-03-10T03:54:00.259Z,101402.00
2019-03-10T03:55:35.632Z,101408.00
2019-03-10T03:57:11.022Z,101400.00
2019-03-10T03:58:46.737Z,101406.00
2019-03-10T04:00:22.113Z,101411.00
2019-03-10T04:02:02.567Z,101410.00
2019-03-10T04:03:37.941Z,101399.00
2019-03-10T04:05:14.626Z,101407.00
2019-03-10T04:06:50.370Z,101390.00
2019-03-10T04:08:25.742Z,101385.00
2019-03-10T04:10:01.117Z,101396.00
2019-03-10T04:11:37.569Z,101394.00
2019-03-10T04:13:12.950Z,101394.00
2019-03-10T04:14:48.479Z,101393.00
2019-03-10T04:16:23.952Z,101406.00
2019-03-10T04:17:59.336Z,101393.00
2019-03-10T04:19:34.701Z,101390.00
2019-03-10T04:21:10.117Z,101392.00
2019-03-10T04:22:46.581Z,101388.00
2019-03-10T04:24:21.956Z,101375.00
2019-03-10T04:25:57.343Z,101375.00
2019-03-10T04:27:32.725Z,101383.00
2019-03-10T04:29:08.105Z,101376.00
2019-03-10T04:30:43.482Z,101380.00
2019-03-10T04:32:18.876Z,101368.00
2019-03-10T04:33:55.324Z,101378.00
2019-03-10T04:35:30.716Z,101371.00
2019-03-10T04:37:06.102Z,101371.00
2019-03-10T04:38:41.484Z,101375.00
2019-03-10T04:40:16.862Z,101374.00
2019-03-10T04:41:52.240Z,101371.00
2019-03-10T04:43:27.619Z,101369.00
2019-03-10T04:45:03.073Z,101359.00
2019-03-10T04:46:38.463Z,101378.00
2019-03-10T04:48:13.845Z,101359.00
2019-03-10T04:49:49.226Z,101373.00
2019-03-10T04:51:24.605Z,101357.00
2019-03-10T04:53:01.065Z,101367.00
2019-03-10T04:54:44.637Z,101363.00
2019-03-10T04:56:27.815Z,101364.00
2019-03-10T04:58:07.845Z,101370.00
2019-03-10T04:59:43.222Z,101361.00
2019-03-10T05:01:18.769Z,101359.00
2019-03-10T05:02:54.167Z,101346.00
2019-03-10T05:04:31.490Z,101355.00
2019-03-10T05:06:06.605Z,101350.00
2019-03-10T05:07:41.989Z,101341.00
2019-03-10T05:09:17.381Z,101348.00
2019-03-10T05:10:52.752Z,101343.00
2019-03-10T05:12:28.133Z,101345.00
2019-03-10T05:14:03.514Z,101335.00
2019-03-10T05:15:38.897Z,101349.00
2019-03-10T05:17:14.281Z,101341.00
2019-03-10T05:18:49.659Z,101340.00
2019-03-10T05:20:25.354Z,101331.00
2019-03-10T05:22:01.105Z,101337.00
2019-03-10T05:23:42.528Z,101334.00
2019-03-10T05:25:22.416Z,101322.00
2019-03-10T05:26:57.810Z,101328.00
2019-03-10T05:28:37.461Z,101324.00
2019-03-10T05:30:13.238Z,101319.00
2019-03-10T05:31:48.985Z,101314.00
2019-03-10T05:33:24.366Z,101307.00
2019-03-10T05:34:59.743Z,101321.00
2019-03-10T05:36:35.121Z,101329.00
2019-03-10T05:38:10.836Z,101319.00
2019-03-10T05:39:46.287Z,101320.00
2019-03-10T05:41:21.659Z,101325.00
2019-03-10T05:42:57.045Z,101324.00
2019-03-10T05:44:33.155Z,101321.00
2019-03-10T05:46:08.535Z,101317.00
2019-03-10T05:47:43.926Z,101317.00
2019-03-10T05:49:20.366Z,101313.00
2019-03-10T05:50:56.067Z,101316.00
2019-03-10T05:52:31.456Z,101320.00
2019-03-10T05:54:06.833Z,101311.00
2019-03-10T05:55:42.199Z,101315.00
2019-03-10T05:57:17.592Z,101306.00
2019-03-10T05:58:52.969Z,101306.00
2019-03-10T06:00:28.350Z,101308.00
2019-03-10T06:02:03.731Z,101295.00
2019-03-10T06:03:39.125Z,101305.00
2019-03-10T06:05:14.800Z,101304.00
2019-03-10T06:06:50.547Z,101293.00
2019-03-10T06:08:26.281Z,101294.00
2019-03-10T06:10:01.671Z,101292.00
2019-03-10T06:11:37.052Z,101283.00
2019-03-10T06:13:12.433Z,101285.00
2019-03-10T06:14:47.963Z,101288.00
2019-03-10T06:16:23.411Z,101271.00
2019-03-10T06:17:58.805Z,101280.00
2019-03-10T06:19:35.056Z,101276.00
2019-03-10T06:21:10.442Z,101259.00
2019-03-10T06:22:45.828Z,101272.00
2019-03-10T06:24:21.478Z,101258.00
2019-03-10T06:25:56.859Z,101268.00
2019-03-10T06:27:33.478Z,101252.00
2019-03-10T06:29:08.856Z,101259.00
2019-03-10T06:30:44.230Z,101253.00
2019-03-10T06:32:19.634Z,101249.00
2019-03-10T06:33:55.015Z,101248.00
2019-03-10T06:35:30.392Z,101244.00
2019-03-10T06:37:05.773Z,101248.00
2019-03-10T06:38:41.181Z,101243.00
2019-03-10T06:40:16.541Z,101239.00
2019-03-10T06:41:52.992Z,101230.00
2019-03-10T06:43:28.376Z,101234.00
2019-03-10T06:45:04.582Z,101227.00
2019-03-10T06:46:39.960Z,101216.00
2019-03-10T06:48:15.340Z,101214.00
2019-03-10T06:49:50.716Z,101210.00
2019-03-10T06:51:26.097Z,101201.00
2019-03-10T06:53:01.490Z,101202.00
2019-03-10T06:54:37.398Z,101196.00
2019-03-10T06:56:12.787Z,101204.00
2019-03-10T06:57:48.166Z,101191.00
2019-03-10T06:59:23.537Z,101191.00
2019-03-10T07:00:58.916Z,101192.00
2019-03-10T07:02:34.298Z,101188.00
2019-03-10T07:04:09.693Z,101181.00
2019-03-10T07:05:45.067Z,101183.00
2019-03-10T07:07:20.441Z,101180.00
2019-03-10T07:08:55.847Z,101181.00
2019-03-10T07:10:31.208Z,101187.00
2019-03-10T07:12:06.599Z,101178.00
2019-03-10T07:13:41.981Z,101176.00
2019-03-10T07:15:17.362Z,101170.00
2019-03-10T07:16:53.003Z,101164.00
2019-03-10T07:18:28.387Z,101160.00
2019-03-10T07:20:05.155Z,101163.00
2019-03-10T07:21:40.775Z,101155.00
2019-03-10T07:23:17.533Z,101152.00
2019-03-10T07:24:52.898Z,101142.00
2019-03-10T07:26:28.273Z,101124.00
2019-03-10T07:28:17.442Z,101119.00
2019-03-10T07:29:54.462Z,101105.00
2019-03-10T07:31:43.523Z,101111.00
2019-03-10T07:33:23.362Z,101115.00
2019-03-10T07:35:06.316Z,101119.00
2019-03-10T07:36:47.254Z,101123.00
2019-03-10T07:38:36.462Z,101119.00
2019-03-10T07:40:28.263Z,101120.00
2019-03-10T07:42:23.137Z,101120.00
2019-03-10T07:44:05.717Z,101127.00
2019-03-10T07:45:49.028Z,101121.00
2019-03-10T07:47:37.971Z,101134.00
2019-03-10T07:49:20.598Z,101130.00
2019-03-10T07:51:00.381Z,101126.00
2019-03-10T07:52:49.529Z,101130.00
2019-03-10T07:54:38.735Z,101134.00
2019-03-10T07:56:16.037Z,101129.00
2019-03-10T07:58:02.579Z,101129.00
2019-03-10T07:59:45.027Z,101130.00
2019-03-10T08:01:22.042Z,101140.00
2019-03-10T08:03:14.226Z,101134.00
2019-03-10T08:04:54.160Z,101142.00
2019-03-10T08:06:34.171Z,101135.00
2019-03-10T08:08:14.271Z,101134.00
2019-03-10T08:09:51.298Z,101138.00
2019-03-10T08:11:31.239Z,101135.00
2019-03-10T08:13:14.045Z,101142.00
2019-03-10T08:14:54.013Z,101130.00
2019-03-10T08:16:34.108Z,101125.00
2019-03-10T08:18:11.132Z,101128.00
2019-03-10T08:19:48.149Z,101120.00
2019-03-10T08:21:34.649Z,101124.00
2019-03-10T08:23:11.646Z,101126.00
2019-03-10T08:24:48.662Z,101117.00
2019-03-10T08:26:37.414Z,101124.00
2019-03-10T08:28:23.265Z,101119.00
2019-03-10T08:30:06.236Z,101120.00
2019-03-10T08:31:59.647Z,101114.00
2019-03-10T08:33:48.962Z,101114.00
2019-03-10T08:35:25.997Z,101117.00
2019-03-10T08:37:12.267Z,101108.00
2019-03-10T08:38:49.299Z,101108.00
2019-03-10T08:40:35.279Z,101109.00
2019-03-10T08:42:20.479Z,101099.00
2019-03-10T08:44:12.755Z,101084.00
2019-03-10T08:45:52.314Z,101091.00
2019-03-10T08:47:29.333Z,101081.00
2019-03-10T08:49:06.359Z,101078.00
2019-03-10T08:50:49.301Z,101072.00
2019-03-10T08:52:35.137Z,101071.00
2019-03-10T08:54:12.159Z,101067.00
2019-03-10T08:55:58.030Z,101054.00
2019-03-10T08:57:51.150Z,101061.00
2019-03-10T08:59:37.158Z,101056.00
2019-03-10T09:01:14.169Z,101055.00
2019-03-10T09:03:03.471Z,101049.00
2019-03-10T09:04:55.643Z,101054.00
2019-03-10T09:06:48.657Z,101048.00
2019-03-10T09:08:25.671Z,101043.00
2019-03-10T09:10:17.897Z,101038.00
2019-03-10T09:11:54.914Z,101034.00
2019-03-10T09:13:31.929Z,101026.00
2019-03-10T09:15:26.167Z,101023.00
2019-03-10T09:17:03.258Z,101014.00
2019-03-10T09:18:48.933Z,101016.00
2019-03-10T09:20:42.087Z,101001.00
2019-03-10T09:22:22.147Z,101006.00
2019-03-10T09:23:59.165Z,100994.00
2019-03-10T09:25:36.195Z,100990.00
2019-03-10T09:27:13.228Z,100974.00
2019-03-10T09:28:50.249Z,100986.00
2019-03-10T09:30:43.630Z,100982.00
2019-03-10T09:32:20.659Z,100974.00
2019-03-10T09:34:03.615Z,100973.00
2019-03-10T09:35:49.760Z,100965.00
2019-03-10T09:37:43.073Z,100965.00
2019-03-10T09:39:32.105Z,100965.00
2019-03-10T09:41:18.043Z,100957.00
2019-03-10T09:43:10.073Z,100945.00
2019-03-10T09:44:47.113Z,100954.00
2019-03-10T09:46:40.190Z,100956.00
2019-03-10T09:48:20.459Z,100941.00
2019-03-10T09:50:03.366Z,100939.00
2019-03-10T09:51:43.048Z,100939.00
2019-03-10T09:53:29.522Z,100938.00
2019-03-10T09:55:23.791Z,100936.00
2019-03-10T09:57:19.071Z,100933.00
2019-03-10T09:58:58.848Z,100925.00
2019-03-10T10:00:41.901Z,100922.00
2019-03-10T10:02:37.157Z,100920.00
2019-03-10T10:04:24.275Z,100918.00
2019-03-10T10:06:01.314Z,100910.00
2019-03-10T10:07:50.990Z,100912.00
2019-03-10T10:09:33.963Z,100909.00
2019-03-10T10:11:17.178Z,100900.00
2019-03-10T10:13:03.505Z,100890.00
2019-03-10T10:14:49.477Z,100891.00
2019-03-10T10:16:29.447Z,100876.00
2019-03-10T10:18:18.419Z,100870.00
2019-03-10T10:20:10.599Z,100865.00
2019-03-10T10:21:56.341Z,100874.00
2019-03-10T10:23:33.365Z,100866.00
2019-03-10T10:25:19.468Z,100870.00
2019-03-10T10:26:59.918Z,100864.00
2019-03-10T10:28:42.963Z,100852.00
2019-03-10T10:30:35.023Z,100849.00
2019-03-10T10:32:20.641Z,100849.00
2019-03-10T10:34:13.884Z,100846.00
2019-03-10T10:35:50.904Z,100829.00
2019-03-10T10:37:30.840Z,100818.00
2019-03-10T10:39:18.993Z,100819.00
2019-03-10T10:40:56.019Z,100818.00
2019-03-10T10:42:51.009Z,100805.00
2019-03-10T10:44:30.512Z,100802.00
2019-03-10T10:46:19.369Z,100797.00
2019-03-10T10:47:56.387Z,100793.00
2019-03-10T10:49:49.664Z,100789.00
2019-03-10T10:51:32.746Z,100783.00
2019-03-10T10:53:26.060Z,100777.00
2019-03-10T10:55:03.155Z,100772.00
2019-03-10T10:56:48.793Z,100763.00
2019-03-10T10:58:43.893Z,100754.00
2019-03-10T11:00:23.620Z,100750.00
2019-03-10T11:02:03.531Z,100752.00
2019-03-10T11:03:46.655Z,100754.00
2019-03-10T11:05:40.633Z,100735.00
2019-03-10T11:07:18.001Z,100727.00
2019-03-10T11:09:12.999Z,100722.00
2019-03-10T11:11:08.153Z,100714.00
2019-03-10T11:12:47.861Z,100709.00
2019-03-10T11:14:24.883Z,100703.00
2019-03-10T11:16:01.909Z,100697.00
2019-03-10T11:17:38.927Z,100700.00
2019-03-10T11:19:30.883Z,100696.00
2019-03-10T11:21:07.981Z,100691.00
2019-03-10T11:22:50.754Z,100683.00
2019-03-10T11:24:27.783Z,100680.00
2019-03-10T11:26:10.742Z,100661.00
2019-03-10T11:27:59.912Z,100662.00
2019-03-10T11:29:42.897Z,100651.00
2019-03-10T11:31:25.659Z,100650.00
2019-03-10T11:33:18.760Z,100642.00
2019-03-10T11:35:02.111Z,100627.00
2019-03-10T11:36:39.145Z,100619.00
2019-03-10T11:38:34.263Z,100614.00
2019-03-10T11:40:15.159Z,100611.00
2019-03-10T11:41:52.188Z,100607.00
2019-03-10T11:43:32.050Z,100598.00
2019-03-10T11:45:23.437Z,100580.00
2019-03-10T11:47:00.462Z,100574.00
2019-03-10T11:48:40.431Z,100566.00
2019-03-10T11:50:20.301Z,100555.00
2019-03-10T11:51:57.331Z,100544.00
2019-03-10T11:53:40.018Z,100540.00
2019-03-10T11:55:33.190Z,100532.00
2019-03-10T11:57:22.259Z,100536.00
2019-03-10T11:59:07.978Z,100525.00
2019-03-10T12:00:47.970Z,100518.00
2019-03-10T12:02:41.152Z,100514.00
2019-03-10T12:04:18.173Z,100505.00
2019-03-10T12:05:58.012Z,100503.00
2019-03-10T12:07:46.924Z,100488.00
2019-03-10T12:09:21.510Z,100488.00
2019-03-10T12:10:56.921Z,100480.00
2019-03-10T12:12:32.295Z,100476.00
2019-03-10T12:14:07.674Z,100466.00
2019-03-10T12:15:43.048Z,100454.00
2019-03-10T12:17:18.445Z,100454.00
2019-03-10T12:18:53.828Z,100430.00
2019-03-10T12:20:29.201Z,100432.00
2019-03-10T12:22:04.586Z,100413.00
2019-03-10T12:23:39.957Z,100433.00
2019-03-10T12:25:15.654Z,100437.00
2019-03-10T12:26:51.720Z,100427.00
2019-03-10T12:28:27.332Z,100409.00
2019-03-10T12:30:02.724Z,100425.00
2019-03-10T12:31:38.098Z,100420.00
2019-03-10T12:33:13.471Z,100424.00
2019-03-10T12:34:48.923Z,100407.00
2019-03-10T12:36:24.309Z,100389.00
2019-03-10T12:37:59.678Z,100382.00
2019-03-10T12:39:35.308Z,100375.00
2019-03-10T12:41:10.702Z,100400.00
2019-03-10T12:42:46.081Z,100385.00
2019-03-10T12:44:21.456Z,100361.00
2019-03-10T12:45:57.099Z,100343.00
2019-03-10T12:47:32.789Z,100339.00
2019-03-10T12:49:08.164Z,100322.00
2019-03-10T12:50:43.544Z,100249.00
2019-03-10T12:52:18.917Z,100244.00
2019-03-10T12:53:54.291Z,100288.00
2019-03-10T12:55:29.672Z,100308.00
2019-03-10T12:57:05.074Z,100317.00
2019-03-10T12:58:40.445Z,100317.00
2019-03-10T13:00:18.812Z,100311.00
2019-03-10T13:01:54.194Z,100308.00
2019-03-10T13:03:29.639Z,100318.00
2019-03-10T13:05:07.483Z,100306.00
2019-03-10T13:06:42.899Z,100310.00
2019-03-10T13:08:18.282Z,100299.00
2019-03-10T13:09:53.678Z,100304.00
2019-03-10T13:11:29.589Z,100285.00
2019-03-10T13:13:04.964Z,100282.00
2019-03-10T13:14:40.332Z,100287.00
2019-03-10T13:16:15.717Z,100286.00
2019-03-10T13:17:51.097Z,100290.00
2019-03-10T13:19:26.479Z,100270.00
2019-03-10T13:21:01.860Z,100264.00
2019-03-10T13:22:37.255Z,100264.00
2019-03-10T13:24:12.630Z,100268.00
2019-03-10T13:25:48.294Z,100250.00
2019-03-10T13:27:23.685Z,100251.00
2019-03-10T13:28:59.053Z,100236.00
2019-03-10T13:30:34.423Z,100218.00
2019-03-10T13:32:09.809Z,100228.00
2019-03-10T13:33:45.185Z,100216.00
2019-03-10T13:35:20.569Z,100224.00
2019-03-10T13:36:56.202Z,100225.00
2019-03-10T13:38:31.594Z,100222.00
2019-03-10T13:40:13.649Z,100213.00
2019-03-10T13:41:49.032Z,100212.00
2019-03-10T13:43:24.410Z,100208.00
2019-03-10T13:44:59.780Z,100196.00
2019-03-10T13:46:35.165Z,100187.00
2019-03-10T13:48:10.554Z,100177.00
2019-03-10T13:49:45.920Z,100153.00
2019-03-10T13:51:21.301Z,100146.00
2019-03-10T13:52:56.681Z,100142.00
2019-03-10T13:54:32.499Z,100145.00
2019-03-10T13:56:07.875Z,100149.00
2019-03-10T13:57:43.265Z,100153.00
2019-03-10T13:59:18.635Z,100158.00
2019-03-10T14:00:54.009Z,100158.00
2019-03-10T14:02:29.403Z,100160.00
2019-03-10T14:04:04.770Z,100158.00
2019-03-10T14:05:40.394Z,100146.00
2019-03-10T14:07:16.107Z,100148.00
2019-03-10T14:08:51.489Z,100143.00
2019-03-10T14:10:26.869Z,100143.00
2019-03-10T14:12:02.251Z,100136.00
2019-03-10T14:13:38.499Z,100140.00
2019-03-10T14:15:15.882Z,100142.00
2019-03-10T14:16:51.596Z,100134.00
2019-03-10T14:18:26.981Z,100141.00
2019-03-10T14:20:02.676Z,100139.00
2019-03-10T14:21:38.127Z,100144.00
2019-03-10T14:23:13.515Z,100142.00
2019-03-10T14:24:48.894Z,100129.00
2019-03-10T14:26:24.336Z,100129.00
2019-03-10T14:27:59.729Z,100134.00
2019-03-10T14:29:35.099Z,100131.00
2019-03-10T14:31:10.471Z,100147.00
2019-03-10T14:32:46.026Z,100147.00
2019-03-10T14:34:21.399Z,100150.00
2019-03-10T14:35:56.782Z,100150.00
2019-03-10T14:37:32.175Z,100160.00
2019-03-10T14:39:08.691Z,100125.00
2019-03-10T14:40:45.352Z,100108.00
2019-03-10T14:42:20.734Z,100111.00
2019-03-10T14:43:56.115Z,100101.00
2019-03-10T14:45:31.556Z,100088.00
2019-03-10T14:47:06.982Z,100095.00
2019-03-10T14:48:42.387Z,100095.00
2019-03-10T14:50:19.462Z,100085.00
2019-03-10T14:51:54.841Z,100087.00
2019-03-10T14:53:30.227Z,100080.00
2019-03-10T14:55:10.154Z,100079.00
2019-03-10T14:56:45.529Z,100078.00
2019-03-10T14:58:20.920Z,100075.00
2019-03-10T14:59:56.302Z,100082.00
2019-03-10T15:01:31.720Z,100062.00
2019-03-10T15:03:07.102Z,100062.00
2019-03-10T15:04:42.746Z,100081.00
2019-03-10T15:06:18.116Z,100075.00
2019-03-10T15:07:53.523Z,100074.00
2019-03-10T15:09:28.902Z,100078.00
2019-03-10T15:11:04.279Z,100074.00
2019-03-10T15:12:39.679Z,100086.00
2019-03-10T15:14:15.058Z,100096.00
2019-03-10T15:15:50.437Z,100110.00
2019-03-10T15:17:26.765Z,100123.00
2019-03-10T15:19:02.388Z,100120.00
2019-03-10T15:20:37.771Z,100130.00
2019-03-10T15:22:13.152Z,100129.00
2019-03-10T15:23:48.536Z,100134.00
2019-03-10T15:25:25.441Z,100141.00
2019-03-10T15:27:00.863Z,100143.00
2019-03-10T15:28:36.413Z,100160.00
2019-03-10T15:30:17.397Z,100166.00
2019-03-10T15:31:52.773Z,100174.00
2019-03-10T15:33:28.157Z,100180.00
2019-03-10T15:35:03.794Z,100135.00
2019-03-10T15:36:39.296Z,100126.00
2019-03-10T15:38:15.177Z,100122.00
2019-03-10T15:39:50.702Z,100111.00
2019-03-10T15:41:26.189Z,100082.00
2019-03-10T15:43:01.704Z,100075.00
2019-03-10T15:44:37.406Z,100048.00
2019-03-10T15:46:12.768Z,100053.00
2019-03-10T15:47:48.419Z,100055.00
2019-03-10T15:49:23.806Z,100046.00
2019-03-10T15:50:59.181Z,100054.00
2019-03-10T15:52:34.554Z,100066.00
2019-03-10T15:54:09.940Z,100060.00
2019-03-10T15:55:46.562Z,100058.00
2019-03-10T15:57:21.946Z,100069.00
2019-03-10T15:58:57.338Z,100076.00
2019-03-10T16:00:32.762Z,100069.00
2019-03-10T16:02:08.170Z,100056.00
2019-03-10T16:03:43.555Z,100055.00
2019-03-10T16:05:18.928Z,100049.00
2019-03-10T16:06:54.315Z,100056.00
2019-03-10T16:08:29.941Z,100057.00
2019-03-10T16:10:11.632Z,100049.00
2019-03-10T16:11:47.010Z,100060.00
2019-03-10T16:13:22.388Z,100058.00
2019-03-10T16:14:57.862Z,100058.00
2019-03-10T16:16:33.255Z,100062.00
2019-03-10T16:18:09.570Z,100065.00
2019-03-10T16:19:44.947Z,100074.00
2019-03-10T16:21:20.575Z,100086.00
2019-03-10T16:22:55.956Z,100093.00
2019-03-10T16:24:31.330Z,100108.00
2019-03-10T16:26:06.708Z,100119.00
2019-03-10T16:27:42.085Z,100105.00
2019-03-10T16:29:17.475Z,100093.00
2019-03-10T16:30:53.108Z,100064.00
2019-03-10T16:32:28.484Z,100082.00
2019-03-10T16:34:03.870Z,100067.00
2019-03-10T16:35:39.801Z,100077.00
2019-03-10T16:37:15.243Z,100077.00
2019-03-10T16:38:50.561Z,100084.00
2019-03-10T16:40:25.928Z,100089.00
2019-03-10T16:42:01.302Z,100099.00
2019-03-10T16:43:36.693Z,100094.00
2019-03-10T16:45:23.860Z,100091.00
2019-03-10T16:46:59.234Z,100087.00
2019-03-10T16:48:34.640Z,100075.00
2019-03-10T16:50:17.156Z,100075.00
2019-03-10T16:51:52.534Z,100081.00
2019-03-10T16:53:27.920Z,100082.00
2019-03-10T16:55:03.310Z,100083.00
2019-03-10T16:56:38.711Z,100083.00
2019-03-10T16:58:14.096Z,100089.00
2019-03-10T16:59:49.833Z,100093.00
2019-03-10T17:01:25.213Z,100100.00
2019-03-10T17:03:00.598Z,100095.00
2019-03-10T17:04:35.988Z,100109.00
2019-03-10T17:06:12.271Z,100118.00
2019-03-10T17:07:47.780Z,100127.00
2019-03-10T17:09:24.139Z,100147.00
2019-03-10T17:10:59.515Z,100148.00
2019-03-10T17:12:34.885Z,100118.00
2019-03-10T17:14:10.279Z,100135.00
2019-03-10T17:15:45.902Z,100098.00
2019-03-10T17:17:21.286Z,100124.00
2019-03-10T17:18:56.653Z,100112.00
2019-03-10T17:20:32.039Z,100107.00
2019-03-10T17:22:07.408Z,100124.00
2019-03-10T17:23:43.453Z,100107.00
2019-03-10T17:25:19.124Z,100107.00
2019-03-10T17:26:54.484Z,100106.00
2019-03-10T17:28:29.902Z,100112.00
2019-03-10T17:30:20.038Z,100100.00
2019-03-10T17:31:55.410Z,100117.00
2019-03-10T17:33:30.792Z,100116.00
2019-03-10T17:35:07.285Z,100119.00
2019-03-10T17:36:43.598Z,100117.00
2019-03-10T17:38:19.233Z,100129.00
2019-03-10T17:39:54.602Z,100134.00
2019-03-10T17:41:29.978Z,100139.00
2019-03-10T17:43:07.897Z,100133.00
2019-03-10T17:44:42.688Z,100138.00
2019-03-10T17:46:18.068Z,100138.00
2019-03-10T17:47:53.449Z,100157.00
2019-03-10T17:49:28.835Z,100142.00
2019-03-10T17:51:04.299Z,100138.00
2019-03-10T17:52:39.942Z,100147.00
2019-03-10T17:54:15.316Z,100146.00
2019-03-10T17:55:50.699Z,100147.00
2019-03-10T17:57:26.065Z,100155.00
2019-03-10T17:59:01.553Z,100155.00
2019-03-10T18:00:37.892Z,100150.00
2019-03-10T18:02:14.393Z,100186.00
2019-03-10T18:03:49.777Z,100170.00
2019-03-10T18:05:25.167Z,100172.00
2019-03-10T18:07:00.546Z,100173.00
2019-03-10T18:08:36.179Z,100172.00
2019-03-10T18:10:16.571Z,100186.00
2019-03-10T18:11:51.968Z,100184.00
2019-03-10T18:13:28.305Z,100166.00
2019-03-10T18:15:08.439Z,100169.00
2019-03-10T18:16:41.708Z,100174.00
2019-03-10T18:18:17.093Z,100170.00
2019-03-10T18:19:52.718Z,100192.00
2019-03-10T18:21:28.335Z,100184.00
2019-03-10T18:23:03.782Z,100190.00
2019-03-10T18:24:39.154Z,100193.00
2019-03-10T18:26:16.942Z,100212.00
2019-03-10T18:27:52.334Z,100217.00
2019-03-10T18:29:27.721Z,100205.00
2019-03-10T18:31:03.119Z,100197.00
2019-03-10T18:32:38.491Z,100214.00
2019-03-10T18:34:13.893Z,100214.00
2019-03-10T18:35:49.288Z,100207.00
2019-03-10T18:37:24.664Z,100190.00
2019-03-10T18:39:00.047Z,100234.00
2019-03-10T18:40:35.435Z,100213.00